Aérodrome :
LOGIN :

S'inscrire | Disclaimer

   EN    FR    IT 

 










Légende :    VFR   VFR Marginal   IFR   IFR Intensif   IFR Très Intensif
Visi : 
Plafond : 
>= 8 km
>= 3000ft
5 à 8 km
1000 à 3000 ft
1500m à 5 km
500 à 1000 ft
800 à 1500m
200 à 500 ft
< 800m
< 200 ft
Symboles :   Orages  Brouillard  Fortes neiges  Fortes précipitations  Vent > 20 kt
SIGMETs :   Divers  Orages  Givrage  Turbulence  Onde Orograph.  Cendres Volcan.







- Altitude de l'aérodrome : 870 ft
- Code IATA : ETZ
- Voir les cartes d'approche


LFJL - Metz Nancy Lorraine

DERNIER METAR :
  • 200900Z AUTO 07008KT 7000 SCT016 BKN026 OVC032 M02/M04 Q1013 TEMPO 4000 -SN BR FEW006 OVC010

METARs EXPIRÉS :
  • 200830Z AUTO 08006KT 6000 BKN014 OVC025 M02/M04 Q1013 TEMPO 4000 -SN BR
  • 200800Z AUTO 08006KT 6000 OVC015 M02/M04 Q1013 TEMPO 4000 -SN BR FEW006 OVC010
  • 200730Z AUTO 08007KT 7000 OVC015 M03/M04 Q1012 TEMPO 4000 -SN BR FEW006 OVC010
  • 200700Z AUTO 07007KT 7000 OVC017 M03/M05 Q1012 TEMPO 3000 -SN BKN008
  • 200630Z AUTO 09009KT 7000 OVC016 M03/M05 Q1012 TEMPO 3000 -SN BKN008

TAF AMD TAF LFJL
Valide du 20 à 07h jusqu'au 21 à 06h UTC


200700Z 2007/2106 07008KT 8000 BKN015 BKN030
TEMPO 2008/2012 4000 -SN BR FEW006 OVC010
TEMPO 2100/2106 4000 BR
Pas de NOTAMs connus pour ce terrain.



MET'MAP, la Météo Aéronautique d'un coup d'oeil ! - Copyright ORBIFLY Décembre 2007 - Disclaimer

ORBIFLY MET'MAP TEAM :

Programmation & Développement : Alexandra Zaïnal
Conception & Développement : Baudouin d'Aumeries
Co-Programmation & Développement : Marc-Olivier Méhu
Soutien technique & logistique : Manuel Goepfert

Contact : metmap@orbifly.com




SOURCES & CREDITS :

   NOAA